createdAt,value
2018-01-31T01:52:20.791Z,9.12
2018-01-31T01:54:25.543Z,8.92
2018-01-31T01:56:54.847Z,8.93
2018-01-31T01:59:24.155Z,9.14
2018-01-31T02:01:52.682Z,9.22
2018-01-31T02:04:21.218Z,9.26
2018-01-31T02:06:50.466Z,9.27
2018-01-31T02:09:18.954Z,9.36
2018-01-31T02:11:48.268Z,9.47
2018-01-31T02:14:16.779Z,9.24
2018-01-31T02:16:46.027Z,9.34
2018-01-31T02:19:14.563Z,9.23
2018-01-31T02:21:43.806Z,9.41
2018-01-31T02:24:12.341Z,9.29
2018-01-31T02:26:41.659Z,9.05
2018-01-31T02:29:10.147Z,9.07
2018-01-31T02:31:38.631Z,8.91
2018-01-31T02:34:07.432Z,9.04
2018-01-31T02:36:35.924Z,9.00
2018-01-31T02:42:10.839Z,8.35
2018-01-31T02:44:39.400Z,8.36
2018-01-31T02:47:08.643Z,8.15
2018-01-31T02:49:37.128Z,7.94
2018-01-31T02:52:05.913Z,7.80
2018-01-31T02:54:34.407Z,7.81
2018-01-31T02:57:02.887Z,8.04
2018-01-31T02:59:31.430Z,8.25
2018-01-31T03:05:04.594Z,8.35
2018-01-31T03:07:33.172Z,8.25
2018-01-31T03:10:01.659Z,8.23
2018-01-31T03:12:30.138Z,8.12
2018-01-31T03:14:58.849Z,7.18
2018-01-31T03:17:27.330Z,5.78
2018-01-31T03:19:55.863Z,5.35
2018-01-31T03:22:24.396Z,5.18
2018-01-31T03:24:53.695Z,4.93
2018-01-31T03:27:23.003Z,4.83
2018-01-31T03:29:52.367Z,4.84
2018-01-31T03:32:20.907Z,4.78
2018-01-31T03:34:49.407Z,4.54
2018-01-31T03:37:17.938Z,4.30
2018-01-31T03:39:46.418Z,4.14
2018-01-31T03:42:14.962Z,4.12
2018-01-31T03:44:43.778Z,3.88
2018-01-31T03:47:12.317Z,3.71
2018-01-31T03:49:40.851Z,3.74
2018-01-31T03:52:09.387Z,3.88
2018-01-31T03:54:37.870Z,3.85
2018-01-31T03:57:06.352Z,3.84
2018-01-31T03:59:34.882Z,3.79
2018-01-31T04:02:03.432Z,3.78
2018-01-31T04:04:31.919Z,3.95
2018-01-31T04:07:00.452Z,3.95
2018-01-31T04:09:29.747Z,3.89
2018-01-31T04:11:59.003Z,3.74
2018-01-31T04:14:28.696Z,3.78
2018-01-31T04:16:57.240Z,3.73
2018-01-31T04:19:26.502Z,3.88
2018-01-31T04:21:55.079Z,3.92
2018-01-31T04:24:23.578Z,4.07
2018-01-31T04:26:52.068Z,4.10
2018-01-31T04:29:21.379Z,4.06
2018-01-31T04:31:50.635Z,4.05
2018-01-31T04:34:19.119Z,3.93
2018-01-31T04:36:47.651Z,3.95
2018-01-31T04:39:16.947Z,3.78
2018-01-31T04:41:46.227Z,3.94
2018-01-31T04:44:15.123Z,3.96
2018-01-31T04:46:44.384Z,3.92
2018-01-31T04:49:12.882Z,3.94
2018-01-31T04:51:41.430Z,3.88
2018-01-31T04:54:09.971Z,4.08
2018-01-31T04:56:39.315Z,4.07
2018-01-31T04:59:07.867Z,4.06
2018-01-31T05:01:37.171Z,4.22
2018-01-31T05:04:05.666Z,4.37
2018-01-31T05:06:34.211Z,4.41
2018-01-31T05:09:02.692Z,4.40
2018-01-31T05:11:31.244Z,4.30
2018-01-31T05:13:59.844Z,4.60
2018-01-31T05:16:28.373Z,4.55
2018-01-31T05:18:56.895Z,4.48
2018-01-31T05:21:25.451Z,4.57
2018-01-31T05:23:53.939Z,4.56
2018-01-31T05:26:22.434Z,4.42
2018-01-31T05:28:51.171Z,4.40
2018-01-31T05:31:20.428Z,4.42
2018-01-31T05:33:48.919Z,4.48
2018-01-31T05:36:17.458Z,4.47
2018-01-31T05:38:45.947Z,4.61
2018-01-31T05:41:14.439Z,4.62
2018-01-31T05:43:43.170Z,4.77
2018-01-31T05:46:11.687Z,4.82
2018-01-31T05:48:40.174Z,4.69
2018-01-31T05:51:08.717Z,4.82
2018-01-31T05:53:38.031Z,4.89
2018-01-31T05:56:07.338Z,4.90
2018-01-31T05:58:36.937Z,4.83
2018-01-31T06:01:06.199Z,4.99
2018-01-31T06:03:34.691Z,5.14
2018-01-31T06:06:03.222Z,5.42
2018-01-31T06:08:31.937Z,5.52
2018-01-31T06:11:00.577Z,5.82
2018-01-31T06:13:30.294Z,6.31
2018-01-31T06:15:58.791Z,6.52
2018-01-31T06:18:27.279Z,7.06
2018-01-31T06:20:55.979Z,7.28
2018-01-31T06:23:24.472Z,7.39
2018-01-31T06:25:52.959Z,7.91
2018-01-31T06:28:22.999Z,8.33
2018-01-31T06:30:53.053Z,8.71
2018-01-31T06:33:21.768Z,9.13
2018-01-31T06:35:50.488Z,9.20
2018-01-31T06:38:18.974Z,9.40
2018-01-31T06:40:48.440Z,9.98
2018-01-31T06:43:17.226Z,10.52
2018-01-31T06:45:45.727Z,10.86
2018-01-31T06:48:14.225Z,11.12
2018-01-31T06:50:43.116Z,11.46
2018-01-31T06:53:11.613Z,11.76
2018-01-31T06:55:40.872Z,11.59
2018-01-31T06:58:09.714Z,12.06
2018-01-31T07:00:38.218Z,12.20
2018-01-31T07:03:06.718Z,13.13
2018-01-31T07:05:35.255Z,12.81
2018-01-31T07:08:04.547Z,13.10
2018-01-31T07:10:33.848Z,13.11
2018-01-31T07:13:03.258Z,13.35
2018-01-31T07:15:32.512Z,13.87
2018-01-31T07:18:01.044Z,13.80
2018-01-31T07:20:29.810Z,14.05
2018-01-31T07:22:58.311Z,14.34
2018-01-31T07:25:27.571Z,14.20
2018-01-31T07:27:56.113Z,14.18
2018-01-31T07:30:24.595Z,13.87
2018-01-31T07:32:53.145Z,13.68
2018-01-31T07:35:22.455Z,13.22
2018-01-31T07:37:50.948Z,13.28
2018-01-31T07:40:19.439Z,13.37
2018-01-31T07:42:48.288Z,13.21
2018-01-31T07:45:16.829Z,13.61
2018-01-31T07:47:45.427Z,13.89
2018-01-31T07:50:14.248Z,13.75
2018-01-31T07:52:43.507Z,13.47
2018-01-31T07:55:11.998Z,13.40
2018-01-31T07:57:40.709Z,13.12
2018-01-31T08:00:10.031Z,12.99
2018-01-31T08:02:39.274Z,13.86
2018-01-31T08:05:07.860Z,14.39
2018-01-31T08:07:36.379Z,14.23
2018-01-31T08:10:05.640Z,14.82
2018-01-31T08:12:34.263Z,14.34
2018-01-31T08:15:03.583Z,14.79
2018-01-31T08:17:32.132Z,14.17
2018-01-31T08:20:02.526Z,14.50
2018-01-31T08:22:31.012Z,14.67
2018-01-31T08:24:59.551Z,14.09
2018-01-31T08:27:28.320Z,14.05
2018-01-31T08:29:56.861Z,14.64
2018-01-31T08:32:25.407Z,14.29
2018-01-31T08:34:54.166Z,14.14
2018-01-31T08:37:22.658Z,15.03
2018-01-31T08:39:51.911Z,14.24
2018-01-31T08:42:20.494Z,14.63
2018-01-31T08:44:48.994Z,13.83
2018-01-31T08:47:17.475Z,14.38
2018-01-31T08:49:46.183Z,15.32
2018-01-31T08:52:14.731Z,15.19
2018-01-31T08:54:43.289Z,15.00
2018-01-31T08:57:11.872Z,14.92
2018-01-31T08:59:40.419Z,15.43
2018-01-31T09:02:09.684Z,15.33
2018-01-31T09:04:38.235Z,15.02
2018-01-31T09:07:06.723Z,15.59
2018-01-31T09:09:35.215Z,15.75
2018-01-31T09:12:03.946Z,16.40
2018-01-31T09:14:33.264Z,17.17
2018-01-31T09:17:01.767Z,17.08
2018-01-31T09:19:31.119Z,17.48
2018-01-31T09:21:59.629Z,16.21
2018-01-31T09:24:28.940Z,16.82
2018-01-31T09:26:57.491Z,15.56
2018-01-31T09:29:25.995Z,16.74
2018-01-31T09:31:54.490Z,16.67
2018-01-31T09:34:23.269Z,16.24
2018-01-31T09:36:51.828Z,16.31
2018-01-31T09:39:20.327Z,16.33
2018-01-31T09:41:48.891Z,16.91
2018-01-31T09:44:17.387Z,16.33
2018-01-31T09:46:45.886Z,16.17
2018-01-31T09:49:14.489Z,16.91
2018-01-31T09:51:43.816Z,17.00
2018-01-31T09:54:12.373Z,17.48
2018-01-31T09:56:41.749Z,17.12
2018-01-31T09:59:10.312Z,16.86
2018-01-31T10:01:38.880Z,17.11
2018-01-31T10:04:07.475Z,16.96
2018-01-31T10:06:36.032Z,16.75
2018-01-31T10:09:04.628Z,17.29
2018-01-31T10:11:33.226Z,17.39
2018-01-31T10:14:01.780Z,17.13
2018-01-31T10:16:30.338Z,17.11
2018-01-31T10:18:58.940Z,17.10
2018-01-31T10:21:27.491Z,17.06
2018-01-31T10:23:56.044Z,17.75
2018-01-31T10:26:24.940Z,17.63
2018-01-31T10:28:54.267Z,18.60
2018-01-31T10:31:22.821Z,18.83
2018-01-31T10:33:52.292Z,18.82
2018-01-31T10:36:20.844Z,18.00
2018-01-31T10:38:49.409Z,18.91
2018-01-31T10:41:18.771Z,19.02
2018-01-31T10:43:47.336Z,19.87
2018-01-31T10:46:15.888Z,20.34
2018-01-31T10:48:44.504Z,20.93
2018-01-31T10:51:13.109Z,20.64
2018-01-31T10:58:39.759Z,21.01
2018-01-31T11:01:08.311Z,21.08
2018-01-31T11:03:36.912Z,20.92
2018-01-31T11:06:05.468Z,20.99
2018-01-31T11:08:34.028Z,21.02
2018-01-31T11:11:02.628Z,21.06
2018-01-31T11:13:31.202Z,21.13
2018-01-31T11:16:00.520Z,21.31
2018-01-31T11:18:29.217Z,20.27
2018-01-31T11:20:58.537Z,20.89
2018-01-31T11:23:27.095Z,21.14
2018-01-31T11:25:56.459Z,21.47
2018-01-31T11:28:25.016Z,22.09
2018-01-31T11:30:53.616Z,22.47
2018-01-31T11:33:22.981Z,21.50
2018-01-31T11:35:51.552Z,21.35
2018-01-31T11:38:20.103Z,21.78
2018-01-31T11:40:48.925Z,22.17
2018-01-31T11:43:17.472Z,21.55
2018-01-31T11:45:46.032Z,22.55
2018-01-31T11:48:15.496Z,22.49
2018-01-31T11:50:44.048Z,22.85
2018-01-31T11:53:12.600Z,22.94
2018-01-31T11:55:41.404Z,22.17
2018-01-31T11:58:10.025Z,22.66
2018-01-31T12:00:50.611Z,23.38
2018-01-31T12:03:19.168Z,22.65
2018-01-31T12:05:47.720Z,23.37
2018-01-31T12:08:16.648Z,22.74
2018-01-31T12:10:45.205Z,21.93
2018-01-31T12:16:38.628Z,22.80
2018-01-31T12:22:24.900Z,22.13
2018-01-31T12:25:11.325Z,21.77
2018-01-31T12:27:57.444Z,21.77
2018-01-31T12:33:49.817Z,22.53
2018-01-31T12:36:36.132Z,23.00
2018-01-31T12:39:03.919Z,22.87
2018-01-31T12:41:31.684Z,22.81
2018-01-31T12:43:59.496Z,23.01
2018-01-31T12:46:45.788Z,22.86
2018-01-31T12:49:32.136Z,22.48
2018-01-31T12:52:29.229Z,22.88
2018-01-31T12:55:15.780Z,21.90
2018-01-31T12:58:01.981Z,22.30
2018-01-31T13:03:53.676Z,22.98
2018-01-31T13:06:40.124Z,23.02
2018-01-31T13:12:38.536Z,22.53
2018-01-31T13:15:24.779Z,22.30
2018-01-31T13:21:23.672Z,21.75
2018-01-31T13:27:22.515Z,21.52
2018-01-31T13:30:08.856Z,21.45
2018-01-31T13:33:00.548Z,21.67
2018-01-31T13:35:47.062Z,21.38
2018-01-31T13:38:33.188Z,21.35
2018-01-31T13:41:19.779Z,21.44
2018-01-31T13:47:15.020Z,21.79
2018-01-31T13:50:01.324Z,21.86
2018-01-31T13:52:47.611Z,22.04
2018-01-31T13:55:33.708Z,21.63
2018-01-31T13:58:20.300Z,21.85
2018-01-31T14:01:06.612Z,21.61
2018-01-31T14:03:53.108Z,21.93
2018-01-31T14:06:39.324Z,21.66
2018-01-31T14:09:25.657Z,21.29
2018-01-31T14:15:21.508Z,20.24
2018-01-31T14:18:07.736Z,19.67
2018-01-31T14:20:54.096Z,19.63
2018-01-31T14:23:40.140Z,19.02
2018-01-31T14:29:28.508Z,18.92
2018-01-31T14:32:14.800Z,19.26
2018-01-31T14:35:00.969Z,18.82
2018-01-31T14:37:29.601Z,18.22
2018-01-31T14:39:58.136Z,18.02
2018-01-31T14:42:26.109Z,17.27
2018-01-31T14:44:54.071Z,17.03
2018-01-31T14:47:22.045Z,16.80
2018-01-31T14:49:50.016Z,16.66
2018-01-31T14:52:18.116Z,16.38
2018-01-31T14:54:46.812Z,16.19
2018-01-31T14:57:15.504Z,15.95
2018-01-31T14:59:43.644Z,15.65
2018-01-31T15:02:12.394Z,15.60
2018-01-31T15:04:40.354Z,15.44
2018-01-31T15:07:08.329Z,15.37
2018-01-31T15:09:36.218Z,15.39
2018-01-31T15:12:04.112Z,15.38
2018-01-31T15:14:32.805Z,15.50
2018-01-31T15:17:00.675Z,15.34
2018-01-31T15:19:28.587Z,15.22
2018-01-31T15:21:56.756Z,15.15
2018-01-31T15:24:24.697Z,15.09
2018-01-31T15:26:52.564Z,14.94
2018-01-31T15:29:20.840Z,14.67
2018-01-31T15:31:48.769Z,14.49
2018-01-31T15:34:16.675Z,14.35
2018-01-31T15:36:45.256Z,14.24
2018-01-31T15:39:13.110Z,13.93
2018-01-31T15:41:41.003Z,13.74
2018-01-31T15:44:09.740Z,13.39
2018-01-31T15:46:37.713Z,13.25
2018-01-31T15:49:05.608Z,13.21
2018-01-31T15:51:34.341Z,13.14
2018-01-31T15:54:02.265Z,13.10
2018-01-31T15:56:30.933Z,12.91
2018-01-31T15:58:58.881Z,12.80
2018-01-31T16:01:26.797Z,12.69
2018-01-31T16:03:54.564Z,12.73
2018-01-31T16:06:22.835Z,12.71
2018-01-31T16:08:50.808Z,12.73
2018-01-31T16:11:18.691Z,12.72
2018-01-31T16:13:46.721Z,12.57
2018-01-31T16:16:14.655Z,12.35
2018-01-31T16:19:01.000Z,12.35
2018-01-31T16:21:29.669Z,12.42
2018-01-31T16:23:58.355Z,12.47
2018-01-31T16:26:27.149Z,12.53
2018-01-31T16:32:24.697Z,12.59
2018-01-31T16:34:53.382Z,12.63
2018-01-31T16:37:22.043Z,12.60
2018-01-31T16:39:50.779Z,12.69
2018-01-31T16:42:20.231Z,12.46
2018-01-31T16:44:48.891Z,12.40
2018-01-31T16:47:17.735Z,12.17
2018-01-31T16:49:46.465Z,12.07
2018-01-31T16:52:15.120Z,11.89
2018-01-31T16:54:43.904Z,11.78
2018-01-31T16:57:12.590Z,11.68
2018-01-31T16:59:41.223Z,11.58
2018-01-31T17:02:10.744Z,11.51
2018-01-31T17:04:40.249Z,11.50
2018-01-31T17:07:08.935Z,11.35
2018-01-31T17:09:37.730Z,11.36
2018-01-31T17:12:06.418Z,11.43
2018-01-31T17:14:36.606Z,11.33
2018-01-31T17:17:06.370Z,11.22
2018-01-31T17:19:35.822Z,11.19
2018-01-31T17:22:04.553Z,11.16
2018-01-31T17:24:33.152Z,10.96
2018-01-31T17:27:01.867Z,10.81
2018-01-31T17:29:31.390Z,10.54
2018-01-31T17:32:00.383Z,10.34
2018-01-31T17:34:29.073Z,10.05
2018-01-31T17:36:58.534Z,10.00
2018-01-31T17:39:27.526Z,9.64
2018-01-31T17:41:56.116Z,9.61
2018-01-31T17:44:24.823Z,9.50
2018-01-31T17:46:53.862Z,9.37
2018-01-31T17:49:22.577Z,9.36
2018-01-31T17:51:51.267Z,9.53
2018-01-31T17:54:20.069Z,9.60
2018-01-31T17:56:48.836Z,9.82
2018-01-31T17:59:17.519Z,10.02
2018-01-31T18:01:46.610Z,10.09
2018-01-31T18:04:15.264Z,10.20
2018-01-31T18:06:43.982Z,10.29
2018-01-31T18:09:12.676Z,10.27
2018-01-31T18:11:41.354Z,10.37
2018-01-31T18:14:09.984Z,10.27
2018-01-31T18:16:39.601Z,10.27
2018-01-31T18:19:08.238Z,10.21
2018-01-31T18:21:36.821Z,10.20
2018-01-31T18:24:06.428Z,10.28
2018-01-31T18:26:35.069Z,10.23
2018-01-31T18:29:03.787Z,10.09
2018-01-31T18:31:32.793Z,10.09
2018-01-31T18:34:01.356Z,10.06
2018-01-31T18:36:29.912Z,10.08
2018-01-31T18:38:58.538Z,10.06
2018-01-31T18:41:27.087Z,9.97
2018-01-31T18:43:55.635Z,9.89
2018-01-31T18:46:24.504Z,9.93
2018-01-31T18:48:53.060Z,10.02
2018-01-31T18:51:21.623Z,10.01
2018-01-31T18:53:50.216Z,9.97
2018-01-31T18:56:18.774Z,9.87
2018-01-31T18:58:48.087Z,10.02
2018-01-31T19:01:16.691Z,9.97
2018-01-31T19:03:45.244Z,9.85
2018-01-31T19:06:14.561Z,9.69
2018-01-31T19:08:43.156Z,9.68
2018-01-31T19:11:11.710Z,9.59
2018-01-31T19:13:41.029Z,9.50
2018-01-31T19:16:09.956Z,9.45
2018-01-31T19:18:39.272Z,9.43
2018-01-31T19:21:07.824Z,9.42
2018-01-31T19:23:36.798Z,9.39
2018-01-31T19:26:06.120Z,9.41
2018-01-31T19:28:34.819Z,9.42
2018-01-31T19:31:03.844Z,9.25
2018-01-31T19:33:32.392Z,9.12
2018-01-31T19:36:00.992Z,9.04
2018-01-31T19:38:29.690Z,9.04
2018-01-31T19:40:58.365Z,8.71
2018-01-31T19:43:27.049Z,8.56
2018-01-31T19:45:55.993Z,8.43
2018-01-31T19:48:24.556Z,8.50
2018-01-31T19:50:53.302Z,8.32
2018-01-31T19:53:22.306Z,8.25
2018-01-31T19:55:50.994Z,8.15
2018-01-31T19:58:19.630Z,8.15
2018-01-31T20:00:49.126Z,7.87
2018-01-31T20:03:18.586Z,7.73
2018-01-31T20:05:47.208Z,7.74
2018-01-31T20:08:16.874Z,7.78
2018-01-31T20:10:45.566Z,7.84
2018-01-31T20:13:14.187Z,7.77
2018-01-31T20:15:43.748Z,7.76
2018-01-31T20:18:13.104Z,7.59
2018-01-31T20:20:42.558Z,7.52
2018-01-31T20:23:11.452Z,7.44
2018-01-31T20:25:40.138Z,7.62
2018-01-31T20:28:08.824Z,7.64
2018-01-31T20:30:37.790Z,7.71
2018-01-31T20:33:06.476Z,7.72
2018-01-31T20:35:35.567Z,7.74
2018-01-31T20:38:04.465Z,7.66
2018-01-31T20:40:33.040Z,7.57
2018-01-31T20:43:01.675Z,7.54
2018-01-31T20:45:31.539Z,7.40
2018-01-31T20:48:00.335Z,7.30
2018-01-31T20:50:28.959Z,7.25
2018-01-31T20:52:58.774Z,7.21
2018-01-31T20:55:28.236Z,7.08
2018-01-31T20:57:56.857Z,7.01
2018-01-31T21:00:26.523Z,6.66
2018-01-31T21:02:55.221Z,6.72
2018-01-31T21:05:23.900Z,6.64
2018-01-31T21:07:52.632Z,6.59
2018-01-31T21:10:22.084Z,6.55
2018-01-31T21:12:50.718Z,6.44
2018-01-31T21:15:20.779Z,6.51
2018-01-31T21:17:49.480Z,6.46
2018-01-31T21:20:18.117Z,6.40
2018-01-31T21:22:47.613Z,6.30
2018-01-31T21:25:17.074Z,6.32
2018-01-31T21:27:45.858Z,6.25
2018-01-31T21:30:14.736Z,6.22
2018-01-31T21:32:43.437Z,6.19
2018-01-31T21:35:12.074Z,6.08
2018-01-31T21:37:41.569Z,5.67
2018-01-31T21:40:11.032Z,5.42
2018-01-31T21:42:39.612Z,5.60
2018-01-31T21:45:08.344Z,5.52
2018-01-31T21:47:37.802Z,5.53
2018-01-31T21:50:06.488Z,5.53
2018-01-31T21:52:35.273Z,5.56
2018-01-31T21:55:03.958Z,5.41
2018-01-31T21:57:50.611Z,5.40
2018-01-31T22:00:20.069Z,5.06
2018-01-31T22:02:48.722Z,4.54
2018-01-31T22:05:17.715Z,4.64
2018-01-31T22:07:46.434Z,4.56
2018-01-31T22:10:15.074Z,4.62
2018-01-31T22:12:44.521Z,4.64
2018-01-31T22:15:13.215Z,4.71
2018-01-31T22:17:41.849Z,4.72
2018-01-31T22:20:11.345Z,4.77
2018-01-31T22:22:40.809Z,4.80
2018-01-31T22:25:09.594Z,5.02
2018-01-31T22:27:38.280Z,4.93
2018-01-31T22:30:07.788Z,4.93
2018-01-31T22:32:36.407Z,4.98
2018-01-31T22:35:05.873Z,5.24
2018-01-31T22:37:34.559Z,5.12
2018-01-31T22:40:03.348Z,5.22
2018-01-31T22:42:32.140Z,5.28
2018-01-31T22:45:00.824Z,5.35
2018-01-31T22:47:29.461Z,5.34
2018-01-31T22:49:58.958Z,5.28
2018-01-31T22:52:28.418Z,5.34
2018-01-31T22:54:56.964Z,5.36
2018-01-31T22:57:25.680Z,5.28
2018-01-31T22:59:54.367Z,5.43
2018-01-31T23:02:22.995Z,5.45
2018-01-31T23:04:52.462Z,5.21
2018-01-31T23:07:21.148Z,5.22
2018-01-31T23:09:49.826Z,5.34
2018-01-31T23:12:24.716Z,5.26
2018-01-31T23:14:55.192Z,4.97
2018-01-31T23:17:29.717Z,5.05
2018-01-31T23:19:59.264Z,5.03
2018-01-31T23:22:29.030Z,5.01
2018-01-31T23:24:57.610Z,4.90
2018-01-31T23:27:26.244Z,4.76
2018-01-31T23:29:55.800Z,4.81
2018-01-31T23:32:24.392Z,4.90
2018-01-31T23:34:56.145Z,4.86
2018-01-31T23:37:24.831Z,4.70
2018-01-31T23:39:54.282Z,4.75
2018-01-31T23:42:24.003Z,4.83
2018-01-31T23:44:52.720Z,4.84
2018-01-31T23:47:21.418Z,4.80
2018-01-31T23:49:50.202Z,4.71
2018-01-31T23:52:18.999Z,4.78
2018-01-31T23:54:47.688Z,4.62
2018-01-31T23:57:16.409Z,4.77
2018-01-31T23:59:45.867Z,4.73
